Time;durP1;ratioP1;P1;durP2;ratioP2;P2;SDS_P1;SDS_P2;PMS_P1;PMS_P2;Temp;Humidity;BMP_temperature;BMP_pressure;BME280_temperature;BME280_humidity;BME280_pressure;Samples;Min_cycle;Max_cycle;Signal;HPM_P1;HPM_P2
2020/12/10 00:01:34;;;;;;;21.25;17.20;;;;;;;;;;4982294;28;20467;-71
2020/12/10 00:04:00;;;;;;;25.70;21.17;;;;;;;;;;4993009;28;20402;-71
2020/12/10 00:06:26;;;;;;;30.80;24.20;;;4.60;99.90;;;;;;4976008;28;20971;-70
2020/12/10 00:08:52;;;;;;;26.52;20.27;;;4.30;99.90;;;;;;4992205;28;20402;-71
2020/12/10 00:11:19;;;;;;;25.70;21.30;;;4.30;99.90;;;;;;4992059;28;20395;-71
2020/12/10 00:13:45;;;;;;;22.92;17.48;;;;;;;;;;4982241;28;20817;-70
2020/12/10 00:16:11;;;;;;;27.35;22.77;;;;;;;;;;4993050;28;20449;-71
2020/12/10 00:18:37;;;;;;;26.92;20.67;;;;;;;;;;4993193;28;20404;-71
2020/12/10 00:21:04;;;;;;;33.47;24.40;;;;;;;;;;4975342;28;20437;-70
2020/12/10 00:23:30;;;;;;;28.55;22.65;;;;;;;;;;4987134;28;20394;-70
2020/12/10 00:25:56;;;;;;;30.55;24.27;;;;;;;;;;4990954;28;20441;-70
2020/12/10 00:28:23;;;;;;;30.90;24.23;;;;;;;;;;4991884;28;20404;-71
2020/12/10 00:30:49;;;;;;;27.83;22.75;;;;;;;;;;4990296;28;20813;-70
2020/12/10 00:33:15;;;;;;;23.85;19.95;;;;;;;;;;4990108;28;20430;-70
2020/12/10 00:35:41;;;;;;;23.88;20.52;;;;;;;;;;4978522;28;20449;-70
2020/12/10 00:38:07;;;;;;;35.60;26.57;;;;;;;;;;4973436;28;20903;-70
2020/12/10 00:40:33;;;;;;;34.15;25.42;;;;;;;;;;4972584;28;20796;-70
2020/12/10 00:43:00;;;;;;;27.80;21.13;;;;;;;;;;4973150;28;20411;-71
2020/12/10 00:45:30;;;;;;;28.17;22.00;;;;;;;;;;4972720;28;20404;-70
2020/12/10 00:47:56;;;;;;;24.45;20.33;;;;;;;;;;4973325;28;20408;-71
2020/12/10 00:50:22;;;;;;;28.77;22.85;;;;;;;;;;4973254;28;20419;-70
2020/12/10 00:52:48;;;;;;;30.27;24.83;;;;;;;;;;4972200;28;20439;-70
2020/12/10 00:55:14;;;;;;;27.45;21.30;;;;;;;;;;4960743;28;20449;-70
2020/12/10 00:57:41;;;;;;;23.88;19.25;;;;;;;;;;4968944;28;20901;-71
2020/12/10 01:00:08;;;;;;;27.60;22.23;;;;;;;;;;4971115;28;20404;-70
2020/12/10 01:02:35;;;;;;;23.55;19.50;;;;;;;;;;4971776;28;20979;-70
2020/12/10 01:05:01;;;;;;;27.83;21.50;;;;;;;;;;4973189;28;20411;-70
2020/12/10 01:07:27;;;;;;;26.33;21.52;;;;;;;;;;4972767;28;20419;-71
2020/12/10 01:09:53;;;;;;;26.90;21.58;;;;;;;;;;4956194;28;20408;-70
2020/12/10 01:12:19;;;;;;;22.98;17.75;;;;;;;;;;4971843;28;20455;-71
2020/12/10 01:14:45;;;;;;;21.88;17.63;;;;;;;;;;4973120;28;20914;-70
2020/12/10 01:17:12;;;;;;;20.80;17.73;;;;;;;;;;4971860;28;20416;-70
2020/12/10 01:19:39;;;;;;;24.03;19.67;;;;;;;;;;4972803;28;20519;-70
2020/12/10 01:22:05;;;;;;;21.20;17.25;;;;;;;;;;4967755;28;20437;-70
2020/12/10 01:24:31;;;;;;;23.00;18.87;;;;;;;;;;4972235;28;20482;-71
2020/12/10 01:26:57;;;;;;;20.20;16.65;;;;;;;;;;4971287;28;20408;-70
2020/12/10 01:29:23;;;;;;;22.47;17.80;;;;;;;;;;4970313;28;20410;-70
2020/12/10 01:31:50;;;;;;;24.45;20.05;;;;;;;;;;4973060;28;20420;-71
2020/12/10 01:34:16;;;;;;;22.50;18.35;;;;;;;;;;4972371;28;20430;-71
2020/12/10 01:36:43;;;;;;;19.85;16.73;;;;;;;;;;4971544;28;20416;-70
2020/12/10 01:39:09;;;;;;;26.52;21.13;;;;;;;;;;4976649;28;20413;-70
2020/12/10 01:41:35;;;;;;;25.90;20.10;;;;;;;;;;4976198;28;20763;-71
2020/12/10 01:44:03;;;;;;;23.83;19.75;;;;;;;;;;4976654;28;20407;-70
2020/12/10 01:46:29;;;;;;;21.83;19.27;;;;;;;;;;4975430;28;20442;-70
2020/12/10 01:48:55;;;;;;;20.70;18.13;;;;;;;;;;4976480;28;20436;-70
2020/12/10 01:51:21;;;;;;;28.50;21.83;;;;;;;;;;4979137;28;20773;-70
2020/12/10 01:53:49;;;;;;;25.08;21.85;;;;;;;;;;4976722;28;20483;-71
2020/12/10 01:56:15;;;;;;;23.10;18.63;;;;;;;;;;4979124;28;20422;-71
2020/12/10 01:58:42;;;;;;;21.77;17.83;;;;;;;;;;4975966;28;20462;-70
2020/12/10 02:01:08;;;;;;;21.20;17.05;;;;;;;;;;4976858;28;20760;-70
2020/12/10 02:03:35;;;;;;;18.80;15.48;;;;;;;;;;4990028;23;20496;-73
2020/12/10 02:06:01;;;;;;;19.83;17.10;;;;;;;;;;5020063;28;20474;-73
2020/12/10 02:08:27;;;;;;;22.92;18.60;;;;;;;;;;5013924;28;20401;-73
2020/12/10 02:10:54;;;;;;;20.70;16.90;;;;;;;;;;5008905;28;20941;-73
2020/12/10 02:13:20;;;;;;;22.33;18.23;;;;;;;;;;5010636;28;20524;-73
2020/12/10 02:15:49;;;;;;;19.80;17.05;;;;;;;;;;5010483;28;20516;-73
2020/12/10 02:18:15;;;;;;;22.90;19.02;;;;;;;;;;5029643;28;20803;-73
2020/12/10 02:20:42;;;;;;;22.53;18.50;;;;;;;;;;5011134;28;20884;-73
2020/12/10 02:23:10;;;;;;;25.13;19.40;;;;;;;;;;5014830;28;20899;-73
2020/12/10 02:25:36;;;;;;;28.27;22.65;;;;;;;;;;5020272;28;20412;-73
2020/12/10 02:28:03;;;;;;;22.52;19.17;;;;;;;;;;5013826;28;20401;-73
2020/12/10 02:30:30;;;;;;;24.20;20.08;;;;;;;;;;5010095;28;20421;-73
2020/12/10 02:32:59;;;;;;;24.48;19.50;;;;;;;;;;5013911;28;20455;-73
2020/12/10 02:35:26;;;;;;;25.27;20.52;;;;;;;;;;5014261;28;20489;-73
2020/12/10 02:37:53;;;;;;;22.60;19.20;;;;;;;;;;5011715;28;20496;-74
2020/12/10 02:40:20;;;;;;;21.83;18.50;;;;;;;;;;5014200;28;20404;-73
2020/12/10 02:42:46;;;;;;;20.48;17.42;;;;;;;;;;5012997;28;20923;-73
2020/12/10 02:45:12;;;;;;;22.83;18.92;;;;;;;;;;5014294;28;20396;-73
2020/12/10 02:47:38;;;;;;;19.88;16.83;;;;;;;;;;5012867;28;20900;-73
2020/12/10 02:50:05;;;;;;;20.90;17.08;;;;;;;;;;5010163;28;20437;-73
2020/12/10 02:52:31;;;;;;;19.30;15.98;;;;;;;;;;5014243;28;20452;-73
2020/12/10 02:54:57;;;;;;;17.47;14.23;;;;;;;;;;5014544;28;20491;-73
2020/12/10 02:57:24;;;;;;;18.80;15.23;;;;;;;;;;5014223;28;20470;-73
2020/12/10 02:59:50;;;;;;;15.88;13.57;;;;;;;;;;5014357;28;20412;-73
2020/12/10 03:02:17;;;;;;;18.52;15.05;;;;;;;;;;5011730;28;20401;-73
2020/12/10 03:04:43;;;;;;;17.77;14.57;;;;;;;;;;5001112;28;20947;-73
2020/12/10 03:07:09;;;;;;;17.65;14.80;;;4.20;99.90;;;;;;4994516;28;20402;-73
2020/12/10 03:09:35;;;;;;;18.20;16.15;;;;;;;;;;4994531;28;20441;-73
2020/12/10 03:12:01;;;;;;;18.58;15.18;;;;;;;;;;4994546;28;20429;-73
2020/12/10 03:14:28;;;;;;;17.50;15.23;;;;;;;;;;4993296;28;20468;-73
2020/12/10 03:16:54;;;;;;;17.92;15.32;;;;;;;;;;4993786;28;20418;-73
2020/12/10 03:19:20;;;;;;;16.58;14.00;;;;;;;;;;5009700;28;20758;-73
2020/12/10 03:21:46;;;;;;;15.05;13.45;;;;;;;;;;4994587;28;20421;-73
2020/12/10 03:24:12;;;;;;;16.77;14.05;;;;;;;;;;4994279;28;20401;-73
2020/12/10 03:26:38;;;;;;;17.42;14.43;;;;;;;;;;4993423;28;20402;-73
2020/12/10 03:29:08;;;;;;;15.93;13.23;;;;;;;;;;4993819;28;20445;-73
2020/12/10 03:31:35;;;;;;;17.52;14.60;;;;;;;;;;4994049;28;20456;-73
2020/12/10 03:34:01;;;;;;;20.00;16.50;;;;;;;;;;4993913;28;20454;-73
2020/12/10 03:36:27;;;;;;;19.25;16.83;;;;;;;;;;4994218;28;20402;-73
2020/12/10 03:38:53;;;;;;;18.45;15.82;;;;;;;;;;5008821;28;20412;-73
2020/12/10 03:41:19;;;;;;;18.98;16.52;;;;;;;;;;4993545;28;20410;-73
2020/12/10 03:43:45;;;;;;;14.77;12.63;;;;;;;;;;4996630;28;20455;-73
2020/12/10 03:46:11;;;;;;;15.45;12.77;;;3.40;99.90;;;;;;5011482;28;20406;-73
2020/12/10 03:48:38;;;;;;;13.52;10.90;;;3.20;99.90;;;;;;4995787;28;20894;-73
2020/12/10 03:51:03;;;;;;;12.38;10.45;;;3.20;99.90;;;;;;4993771;28;20493;-73
2020/12/10 03:53:29;;;;;;;8.85;6.20;;;3.30;99.90;;;;;;4988584;28;20509;-75
2020/12/10 03:55:55;;;;;;;5.83;5.10;;;3.40;99.90;;;;;;4993219;28;20468;-73
2020/12/10 03:58:21;;;;;;;8.93;7.55;;;3.50;99.90;;;;;;4992435;28;20406;-73
2020/12/10 04:00:47;;;;;;;9.70;8.70;;;;;;;;;;4992978;28;20936;-73
2020/12/10 04:03:13;;;;;;;11.73;9.57;;;;;;;;;;4993528;28;20398;-73
2020/12/10 04:05:40;;;;;;;10.95;9.18;;;;;;;;;;5008089;28;20928;-73
2020/12/10 04:08:06;;;;;;;7.27;5.60;;;;;;;;;;4992162;28;20776;-73
2020/12/10 04:10:32;;;;;;;5.95;4.82;;;;;;;;;;4993342;28;20406;-73
2020/12/10 04:12:58;;;;;;;7.72;5.88;;;;;;;;;;4993465;28;20426;-73
2020/12/10 04:15:24;;;;;;;5.82;4.45;;;;;;;;;;4992987;28;20964;-73
2020/12/10 04:17:50;;;;;;;4.32;3.30;;;;;;;;;;4992034;28;20408;-73
2020/12/10 04:20:17;;;;;;;1.83;1.52;;;;;;;;;;4993205;28;20444;-73
2020/12/10 04:22:44;;;;;;;0.80;0.50;;;;;;;;;;4991912;28;20410;-73
2020/12/10 04:25:10;;;;;;;1.50;0.50;;;;;;;;;;4993271;28;20450;-73
2020/12/10 04:27:36;;;;;;;2.13;0.55;;;;;;;;;;4993152;28;20406;-73
2020/12/10 04:30:02;;;;;;;1.40;0.63;;;;;;;;;;4993003;28;20402;-73
2020/12/10 04:32:28;;;;;;;1.20;0.73;;;;;;;;;;4991843;28;20418;-73
2020/12/10 04:34:55;;;;;;;2.75;2.00;;;;;;;;;;4991681;28;20410;-73
2020/12/10 04:37:21;;;;;;;5.55;4.22;;;;;;;;;;4993005;28;20893;-73
2020/12/10 04:39:48;;;;;;;8.02;6.50;;;;;;;;;;5008123;28;20414;-73
2020/12/10 04:42:16;;;;;;;8.98;7.20;;;;;;;;;;4992688;28;20451;-73
2020/12/10 04:44:42;;;;;;;9.07;7.03;;;;;;;;;;4991621;28;20451;-73
2020/12/10 04:47:10;;;;;;;7.82;6.80;;;;;;;;;;4992684;28;20406;-73
2020/12/10 04:49:37;;;;;;;8.02;6.28;;;;;;;;;;4992722;28;20970;-73
2020/12/10 04:52:03;;;;;;;7.95;6.50;;;3.70;99.90;;;;;;4992003;28;20399;-73
2020/12/10 04:54:30;;;;;;;8.18;6.20;;;3.00;99.90;;;;;;4991286;28;20422;-73
2020/12/10 04:56:57;;;;;;;7.70;6.90;;;3.00;99.90;;;;;;4992646;28;20394;-73
2020/12/10 04:59:23;;;;;;;5.00;4.43;;;;;;;;;;5007722;28;20870;-73
2020/12/10 05:01:49;;;;;;;6.65;5.25;;;;;;;;;;5007809;28;20492;-73
2020/12/10 05:04:15;;;;;;;3.42;2.80;;;;;;;;;;4990712;28;20410;-73
2020/12/10 05:06:49;;;;;;;2.72;1.58;;;;;;;;;;4992585;28;20414;-74
2020/12/10 05:09:15;;;;;;;1.48;0.80;;;;;;;;;;4992452;28;20389;-73
2020/12/10 05:11:41;;;;;;;1.48;0.57;;;;;;;;;;4989504;28;20533;-73
2020/12/10 05:14:08;;;;;;;1.58;0.85;;;;;;;;;;5006315;28;20517;-74
2020/12/10 05:16:35;;;;;;;1.75;1.40;;;;;;;;;;4992050;28;20468;-73
2020/12/10 05:19:19;;;;;;;2.75;1.70;;;;;;;;;;4992040;28;20405;-74
2020/12/10 05:22:01;;;;;;;2.22;1.40;;;;;;;;;;5010839;28;20417;-73
2020/12/10 05:24:28;;;;;;;2.13;1.50;;;;;;;;;;4991660;28;20402;-73
2020/12/10 05:27:08;;;;;;;1.70;0.60;;;;;;;;;;4992428;28;20406;-72
2020/12/10 05:29:35;;;;;;;0.80;0.40;;;;;;;;;;4992266;28;20462;-73
2020/12/10 05:32:02;;;;;;;0.75;0.40;;;;;;;;;;4992117;28;20484;-73
2020/12/10 05:34:28;;;;;;;0.73;0.40;;;;;;;;;;4992264;28;20429;-73
2020/12/10 05:36:54;;;;;;;0.90;0.40;;;;;;;;;;5006946;28;20456;-73
2020/12/10 05:39:23;;;;;;;0.93;0.57;;;;;;;;;;4992451;28;20489;-73
2020/12/10 05:41:53;;;;;;;0.70;0.30;;;3.00;99.90;;;;;;5007147;28;20497;-73
2020/12/10 05:44:20;;;;;;;1.45;0.50;;;;;;;;;;5007423;28;20507;-73
2020/12/10 05:46:50;;;;;;;0.73;0.40;;;4.40;90.90;;;;;;5007208;28;20464;-73
2020/12/10 05:49:16;;;;;;;1.13;0.40;;;;;;;;;;4992284;28;20455;-73
2020/12/10 05:51:44;;;;;;;0.98;0.57;;;;;;;;;;5007863;28;20897;-73
2020/12/10 05:54:10;;;;;;;0.98;0.50;;;;;;;;;;4991605;28;20495;-73
2020/12/10 05:56:40;;;;;;;1.20;0.50;;;;;;;;;;4990146;28;20743;-73
2020/12/10 05:59:06;;;;;;;1.20;0.60;;;;;;;;;;4998002;28;20947;-73
2020/12/10 06:01:33;;;;;;;0.95;0.47;;;;;;;;;;5006996;28;20878;-73
2020/12/10 06:04:00;;;;;;;1.33;0.65;;;;;;;;;;4991678;28;20789;-73
2020/12/10 06:06:27;;;;;;;1.33;0.60;;;;;;;;;;4991358;28;20920;-73
2020/12/10 06:08:57;;;;;;;2.17;0.77;;;;;;;;;;4992739;28;20497;-73
2020/12/10 06:11:24;;;;;;;1.20;0.60;;;;;;;;;;4991229;28;20448;-73
2020/12/10 06:13:50;;;;;;;2.00;0.70;;;;;;;;;;4992193;28;20482;-73
2020/12/10 06:16:16;;;;;;;1.20;0.70;;;;;;;;;;4991385;28;20394;-73
2020/12/10 06:19:00;;;;;;;0.90;0.50;;;;;;;;;;4991012;28;20394;-73
2020/12/10 06:21:35;;;;;;;1.50;0.40;;;;;;;;;;4973346;28;20422;-74
2020/12/10 06:24:01;;;;;;;0.70;0.50;;;;;;;;;;4992963;28;20471;-79
2020/12/10 06:26:35;;;;;;;0.95;0.40;;;;;;;;;;4992517;28;20495;-73
2020/12/10 06:29:20;;;;;;;1.07;0.50;;;;;;;;;;4994499;28;20521;-74
2020/12/10 06:32:02;;;;;;;1.20;0.40;;;;;;;;;;4995934;28;20392;-73
2020/12/10 06:34:43;;;;;;;0.83;0.40;;;;;;;;;;4994646;28;20518;-73
2020/12/10 06:37:20;;;;;;;0.75;0.43;;;;;;;;;;4992066;28;20541;-73
2020/12/10 06:39:49;;;;;;;0.82;0.40;;;;;;;;;;4992777;28;20505;-78
2020/12/10 06:42:15;;;;;;;1.88;0.47;;;;;;;;;;4995715;28;20539;-72
2020/12/10 06:44:41;;;;;;;1.95;0.63;;;;;;;;;;4993881;28;20395;-71
2020/12/10 06:47:07;;;;;;;1.40;0.60;;;;;;;;;;4994275;28;20409;-73
2020/12/10 06:49:36;;;;;;;1.58;0.70;;;;;;;;;;5060550;23;20449;-77
2020/12/10 06:52:12;;;;;;;2.70;0.60;;;;;;;;;;4987624;28;20454;-77
2020/12/10 06:54:56;;;;;;;1.23;0.50;;;;;;;;;;4985480;28;20484;-77
2020/12/10 06:57:23;;;;;;;0.90;0.52;;;;;;;;;;4982996;28;20450;-77
2020/12/10 06:59:52;;;;;;;0.70;0.40;;;;;;;;;;4987085;28;20414;-77
2020/12/10 07:02:21;;;;;;;1.13;0.60;;;;;;;;;;4987638;28;20573;-77
2020/12/10 07:04:49;;;;;;;1.30;0.60;;;;;;;;;;4991240;28;20933;-76
2020/12/10 07:07:17;;;;;;;1.90;0.70;;;;;;;;;;4972888;28;20484;-76
2020/12/10 07:09:50;;;;;;;1.30;0.60;;;;;;;;;;4975487;28;20524;-77
2020/12/10 07:12:20;;;;;;;1.20;0.52;;;;;;;;;;4982332;28;20409;-76
2020/12/10 07:14:47;;;;;;;1.30;0.80;;;;;;;;;;4967680;28;20929;-76
2020/12/10 07:17:13;;;;;;;1.40;0.60;;;;;;;;;;4983645;28;20430;-77
2020/12/10 07:19:39;;;;;;;1.50;0.70;;;;;;;;;;4987044;28;20412;-76
2020/12/10 07:22:05;;;;;;;1.35;0.60;;;;;;;;;;4976385;28;20432;-76
2020/12/10 07:24:32;;;;;;;1.30;0.90;;;;;;;;;;4974802;28;20447;-77
2020/12/10 07:26:58;;;;;;;1.20;0.93;;;;;;;;;;4987467;28;20412;-76
2020/12/10 07:29:24;;;;;;;1.60;0.73;;;;;;;;;;4973328;28;20430;-77
2020/12/10 07:31:51;;;;;;;1.52;0.80;;;;;;;;;;4989865;28;20400;-76
2020/12/10 07:34:17;;;;;;;1.60;0.60;;;;;;;;;;4974118;28;20923;-76
2020/12/10 07:36:46;;;;;;;1.10;0.60;;;;;;;;;;4971136;28;20419;-76
2020/12/10 07:39:13;;;;;;;0.98;0.60;;;;;;;;;;4989123;28;20416;-77
2020/12/10 07:41:39;;;;;;;1.80;0.60;;;;;;;;;;4976812;28;20478;-76
2020/12/10 07:44:05;;;;;;;1.80;0.80;;;;;;;;;;4982072;28;20481;-76
2020/12/10 07:46:35;;;;;;;1.25;0.60;;;;;;;;;;4972005;28;20404;-77
2020/12/10 07:49:02;;;;;;;1.90;0.70;;;;;;;;;;4974646;28;20521;-76
2020/12/10 07:51:29;;;;;;;1.63;0.60;;;;;;;;;;4972439;28;20484;-76
2020/12/10 07:54:01;;;;;;;2.05;0.90;;;;;;;;;;4986739;28;20430;-77
2020/12/10 07:56:29;;;;;;;1.88;0.85;;;;;;;;;;4988180;28;20939;-76
2020/12/10 07:59:02;;;;;;;1.90;0.90;;;;;;;;;;4984741;28;20416;-77
2020/12/10 08:01:30;;;;;;;1.90;0.55;;;;;;;;;;4974124;28;20442;-76
2020/12/10 08:04:00;;;;;;;1.65;0.80;;;;;;;;;;4972213;28;20929;-76
2020/12/10 08:06:31;;;;;;;1.60;0.77;;;;;;;;;;4973861;28;20474;-77
2020/12/10 08:09:01;;;;;;;1.58;1.00;;;;;;;;;;4972941;28;20469;-76
2020/12/10 08:11:27;;;;;;;2.38;0.88;;;;;;;;;;4974346;28;20458;-77
2020/12/10 08:14:03;;;;;;;1.50;0.90;;;;;;;;;;4974607;28;20424;-76
2020/12/10 08:16:37;;;;;;;1.90;0.63;;;;;;;;;;4998862;28;20804;-76
2020/12/10 08:19:10;;;;;;;2.80;1.27;;;;;;;;;;4986878;28;20471;-77
2020/12/10 08:21:37;;;;;;;2.58;0.98;;;;;;;;;;4969811;28;20457;-76
2020/12/10 08:24:03;;;;;;;1.50;0.60;;;;;;;;;;4968249;28;20412;-76
2020/12/10 08:26:30;;;;;;;1.05;0.65;;;;;;;;;;4969640;28;20412;-76
2020/12/10 08:28:56;;;;;;;1.67;0.75;;;;;;;;;;4970951;28;20820;-76
2020/12/10 08:31:23;;;;;;;1.38;0.80;;;;;;;;;;4975062;28;20432;-76
2020/12/10 08:33:50;;;;;;;2.55;0.70;;;;;;;;;;4989726;28;20470;-76
2020/12/10 08:36:28;;;;;;;2.00;1.27;;;;;;;;;;4979290;28;20427;-76
2020/12/10 08:38:55;;;;;;;2.88;1.20;;;;;;;;;;4981519;28;20417;-76
2020/12/10 08:41:25;;;;;;;2.63;0.98;;;;;;;;;;4981818;28;20415;-76
2020/12/10 08:43:59;;;;;;;1.80;1.02;;;;;;;;;;4975518;28;20410;-76
2020/12/10 08:46:25;;;;;;;1.40;0.85;;;;;;;;;;4966702;28;20470;-75
2020/12/10 08:48:53;;;;;;;3.30;1.00;;;;;;;;;;4964171;28;20493;-76
2020/12/10 08:51:19;;;;;;;1.83;0.80;;;;;;;;;;4967465;28;20458;-76
2020/12/10 08:53:46;;;;;;;2.13;1.10;;;4.60;88.70;;;;;;4961338;28;20424;-76
2020/12/10 08:56:22;;;;;;;1.90;0.75;;;5.70;73.50;;;;;;4962358;28;20399;-75
2020/12/10 08:58:49;;;;;;;2.53;0.90;;;5.70;73.80;;;;;;4969161;28;20412;-76
2020/12/10 09:01:15;;;;;;;2.00;0.75;;;5.70;72.60;;;;;;4988308;28;20507;-76
2020/12/10 09:03:41;;;;;;;2.08;0.60;;;5.70;72.50;;;;;;4974231;28;20769;-76
2020/12/10 09:06:07;;;;;;;1.95;0.73;;;5.80;72.30;;;;;;4973872;28;20409;-76
2020/12/10 09:08:33;;;;;;;1.47;0.80;;;6.00;70.80;;;;;;4978743;28;20417;-76
2020/12/10 09:10:58;;;;;;;2.42;1.00;;;5.90;71.30;;;;;;4968808;28;20403;-76
2020/12/10 09:13:25;;;;;;;1.58;0.85;;;6.00;70.50;;;;;;4983428;28;20966;-76
2020/12/10 09:15:52;;;;;;;1.83;0.93;;;6.00;71.40;;;;;;4985758;28;20510;-76
2020/12/10 09:18:18;;;;;;;2.35;1.27;;;5.90;72.70;;;;;;4970773;28;20420;-76
2020/12/10 09:20:43;;;;;;;1.40;0.88;;;6.00;71.30;;;;;;4970024;28;20416;-76
2020/12/10 09:23:10;;;;;;;2.30;0.90;;;6.10;70.90;;;;;;4968102;28;20390;-75
2020/12/10 09:25:36;;;;;;;1.40;0.77;;;6.10;71.10;;;;;;4988961;28;20482;-76
2020/12/10 09:28:02;;;;;;;1.55;0.95;;;6.00;71.90;;;;;;4970363;28;20931;-76
2020/12/10 09:30:29;;;;;;;2.83;1.20;;;6.20;71.00;;;;;;4972798;28;20490;-76
2020/12/10 09:32:55;;;;;;;2.13;0.80;;;6.20;70.60;;;;;;4967814;28;20426;-76
2020/12/10 09:35:21;;;;;;;1.10;0.68;;;6.20;70.00;;;;;;4972782;28;20397;-76
2020/12/10 09:37:47;;;;;;;1.58;0.80;;;6.20;70.30;;;;;;4968646;28;20407;-75
2020/12/10 09:40:14;;;;;;;2.58;1.20;;;6.30;70.30;;;;;;4978708;28;20417;-76
2020/12/10 09:42:41;;;;;;;1.40;0.70;;;6.30;69.30;;;;;;4969009;28;20443;-76
2020/12/10 09:45:07;;;;;;;1.80;0.95;;;6.20;70.80;;;;;;4964045;28;20837;-76
2020/12/10 09:47:34;;;;;;;1.50;0.80;;;6.20;71.80;;;;;;4966650;28;20413;-75
2020/12/10 09:50:01;;;;;;;2.00;0.80;;;6.30;70.80;;;;;;4971464;28;20407;-75
2020/12/10 09:52:27;;;;;;;1.98;0.80;;;6.30;70.80;;;;;;4967777;28;20454;-76
2020/12/10 09:55:03;;;;;;;1.00;0.60;;;6.50;68.70;;;;;;4986068;28;20442;-76
2020/12/10 09:57:32;;;;;;;2.20;0.60;;;6.50;69.00;;;;;;4972767;28;20509;-76
2020/12/10 09:59:59;;;;;;;1.88;0.70;;;6.40;70.60;;;;;;4992393;28;20987;-76
2020/12/10 10:02:25;;;;;;;1.30;0.73;;;6.40;69.70;;;;;;4975980;28;20504;-76
2020/12/10 10:04:52;;;;;;;1.92;0.77;;;6.50;69.10;;;;;;4977638;28;20396;-75
2020/12/10 10:07:18;;;;;;;1.30;0.90;;;6.60;67.70;;;;;;4969218;28;20406;-76
2020/12/10 10:09:45;;;;;;;1.67;0.65;;;6.70;67.80;;;;;;4982749;28;20468;-76
2020/12/10 10:12:11;;;;;;;1.38;0.60;;;6.70;67.60;;;;;;4983399;28;20526;-76
2020/12/10 10:14:37;;;;;;;1.27;0.73;;;6.70;67.00;;;;;;4984645;28;20414;-76
2020/12/10 10:17:05;;;;;;;1.20;0.80;;;6.60;67.40;;;;;;4986588;28;20745;-76
2020/12/10 10:19:31;;;;;;;1.60;0.90;;;6.60;67.10;;;;;;4974566;28;20396;-76
2020/12/10 10:21:57;;;;;;;2.30;0.70;;;6.50;67.50;;;;;;4976747;28;20413;-76
2020/12/10 10:24:24;;;;;;;1.50;0.90;;;6.70;65.40;;;;;;4970872;28;20777;-76
2020/12/10 10:26:50;;;;;;;1.10;0.80;;;6.80;66.30;;;;;;4989477;28;20416;-75
2020/12/10 10:29:20;;;;;;;2.85;1.20;;;6.70;65.80;;;;;;4972584;28;20851;-76
2020/12/10 10:31:47;;;;;;;1.33;0.73;;;6.70;67.00;;;;;;4971445;28;20483;-75
2020/12/10 10:34:13;;;;;;;1.95;0.80;;;6.60;67.20;;;;;;4976719;28;20439;-76
2020/12/10 10:36:42;;;;;;;1.65;0.65;;;6.80;64.70;;;;;;4969538;28;20401;-75
2020/12/10 10:39:09;;;;;;;1.30;0.90;;;6.90;65.40;;;;;;4974767;28;20442;-76
2020/12/10 10:41:40;;;;;;;1.83;0.90;;;6.80;66.60;;;;;;4988397;28;20408;-76
2020/12/10 10:44:06;;;;;;;1.97;0.70;;;6.90;65.80;;;;;;4990525;28;20453;-76
2020/12/10 10:46:32;;;;;;;1.48;0.90;;;6.90;64.90;;;;;;4968559;28;20796;-76
2020/12/10 10:48:58;;;;;;;1.00;0.70;;;7.00;63.80;;;;;;4977938;28;20491;-76
2020/12/10 10:51:24;;;;;;;2.33;0.90;;;7.10;63.80;;;;;;4966776;28;20491;-76
2020/12/10 10:53:50;;;;;;;1.88;1.00;;;7.00;66.00;;;;;;4972844;28;20510;-76
2020/12/10 10:56:21;;;;;;;2.43;1.37;;;7.00;65.90;;;;;;4969899;28;20608;-75
2020/12/10 10:58:46;;;;;;;3.15;0.80;;;7.10;64.10;;;;;;4975223;28;20414;-76
2020/12/10 11:01:12;;;;;;;1.65;0.80;;;7.00;65.00;;;;;;4972970;28;20392;-77
2020/12/10 11:03:39;;;;;;;1.00;0.60;;;7.10;63.70;;;;;;4974376;28;20860;-76
2020/12/10 11:06:05;;;;;;;2.13;1.15;;;7.10;64.90;;;;;;4986801;28;20411;-76
2020/12/10 11:08:31;;;;;;;1.50;1.00;;;7.20;64.10;;;;;;4969721;28;20401;-76
2020/12/10 11:10:57;;;;;;;3.60;0.93;;;7.10;63.80;;;;;;4970780;28;20897;-76
2020/12/10 11:13:24;;;;;;;1.60;0.80;;;7.20;63.50;;;;;;4994482;28;20431;-76
2020/12/10 11:15:50;;;;;;;1.30;0.70;;;7.20;63.60;;;;;;4976340;28;20396;-76
2020/12/10 11:18:16;;;;;;;1.48;0.80;;;7.20;63.70;;;;;;4988398;28;20481;-76
2020/12/10 11:20:42;;;;;;;1.67;1.02;;;7.20;63.00;;;;;;4975214;28;20435;-76
2020/12/10 11:23:07;;;;;;;1.55;0.90;;;7.20;65.30;;;;;;4985989;28;20511;-76
2020/12/10 11:25:33;;;;;;;1.27;0.80;;;7.20;65.50;;;;;;4975083;28;20415;-76
2020/12/10 11:27:59;;;;;;;1.87;1.00;;;7.20;64.70;;;;;;4983275;28;20413;-76
2020/12/10 11:30:26;;;;;;;2.65;1.30;;;;;;;;;;4976230;28;20420;-77
2020/12/10 11:32:52;;;;;;;2.72;1.33;;;7.40;63.10;;;;;;4975437;28;20412;-76
2020/12/10 11:35:18;;;;;;;2.07;1.07;;;7.60;64.20;;;;;;4983288;28;20421;-76
2020/12/10 11:37:44;;;;;;;1.70;0.70;;;7.60;64.00;;;;;;4986133;28;20412;-77
2020/12/10 11:40:10;;;;;;;1.50;0.70;;;7.60;62.00;;;;;;4978517;28;20403;-77
2020/12/10 11:42:36;;;;;;;1.30;0.77;;;7.80;61.10;;;;;;4986593;28;20475;-76
2020/12/10 11:45:04;;;;;;;1.77;0.83;;;7.90;62.00;;;;;;4971718;28;20917;-77
2020/12/10 11:47:31;;;;;;;1.88;0.90;;;7.80;62.50;;;;;;4983004;28;20412;-77
2020/12/10 11:49:57;;;;;;;1.60;0.80;;;7.80;61.10;;;;;;4981828;28;20481;-77
2020/12/10 11:52:23;;;;;;;1.60;0.77;;;;;;;;;;4966403;28;20417;-76
2020/12/10 11:54:49;;;;;;;3.50;1.10;;;;;;;;;;4978538;28;20425;-76
2020/12/10 11:57:15;;;;;;;1.98;0.80;;;;;;;;;;4973485;28;20460;-76
2020/12/10 11:59:41;;;;;;;1.80;0.90;;;;;;;;;;4969589;28;20489;-77
2020/12/10 12:02:08;;;;;;;2.22;0.90;;;;;;;;;;4975235;28;20415;-76
2020/12/10 12:04:35;;;;;;;1.60;1.00;;;;;;;;;;4974706;28;20412;-77
2020/12/10 12:07:02;;;;;;;3.38;1.48;;;8.00;62.20;;;;;;4971533;28;20429;-77
2020/12/10 12:09:28;;;;;;;2.80;1.75;;;8.40;64.10;;;;;;4969916;28;20427;-77
2020/12/10 12:11:54;;;;;;;2.80;2.28;;;;;;;;;;4971354;28;20419;-77
2020/12/10 12:14:20;;;;;;;2.63;1.92;;;;;;;;;;4972431;28;20420;-77
2020/12/10 12:16:46;;;;;;;2.60;1.80;;;8.50;66.10;;;;;;4974982;28;20408;-76
2020/12/10 12:19:12;;;;;;;2.58;1.73;;;8.60;71.10;;;;;;4985101;28;20419;-77
2020/12/10 12:21:39;;;;;;;2.93;2.00;;;8.70;70.90;;;;;;4972441;28;20430;-77
2020/12/10 12:24:04;;;;;;;2.15;1.95;;;8.60;71.40;;;;;;4987089;28;20982;-77
2020/12/10 12:26:32;;;;;;;2.20;1.50;;;8.70;71.40;;;;;;4972482;28;20408;-77
2020/12/10 12:28:58;;;;;;;1.90;1.50;;;8.70;70.50;;;;;;4974834;28;20879;-77
2020/12/10 12:31:29;;;;;;;2.05;1.20;;;8.80;71.50;;;;;;4972647;28;20455;-76
2020/12/10 12:33:54;;;;;;;2.10;1.50;;;8.70;69.70;;;;;;4985521;28;20431;-76
2020/12/10 12:36:20;;;;;;;2.95;1.55;;;8.80;70.80;;;;;;4974602;28;20396;-77
2020/12/10 12:38:47;;;;;;;2.17;1.60;;;8.90;70.80;;;;;;4991125;28;20415;-76
2020/12/10 12:41:13;;;;;;;2.30;1.33;;;8.90;71.20;;;;;;5238903;23;20490;-75
2020/12/10 12:43:39;;;;;;;2.22;1.63;;;9.00;71.70;;;;;;4984374;28;20411;-75
2020/12/10 12:46:05;;;;;;;2.78;1.27;;;9.00;71.10;;;;;;4974577;28;20402;-75
2020/12/10 12:48:31;;;;;;;1.98;1.42;;;8.90;71.00;;;;;;4992082;28;20416;-75
2020/12/10 12:50:57;;;;;;;2.15;1.40;;;8.90;71.40;;;;;;4971912;28;20422;-75
2020/12/10 12:53:23;;;;;;;2.47;1.48;;;8.90;72.00;;;;;;4967610;28;20424;-75
2020/12/10 12:55:50;;;;;;;2.38;1.77;;;8.80;73.90;;;;;;4950462;28;20943;-75
2020/12/10 12:58:15;;;;;;;3.10;1.45;;;8.70;75.30;;;;;;4973458;28;20408;-75
2020/12/10 13:00:41;;;;;;;2.30;2.00;;;8.60;77.40;;;;;;4953417;28;20896;-74
2020/12/10 13:03:07;;;;;;;3.28;2.10;;;8.70;76.60;;;;;;4971450;28;20392;-74
2020/12/10 13:05:33;;;;;;;2.28;1.70;;;8.80;76.50;;;;;;4953963;28;20412;-75
2020/12/10 13:07:59;;;;;;;3.40;1.83;;;8.80;75.70;;;;;;4954018;28;20993;-74
2020/12/10 13:10:25;;;;;;;3.47;2.00;;;8.60;74.00;;;;;;4973136;28;20539;-74
2020/12/10 13:12:52;;;;;;;2.53;2.00;;;8.50;74.80;;;;;;4971987;28;20828;-75
2020/12/10 13:15:17;;;;;;;7.90;5.47;;;8.30;74.60;;;;;;4955043;28;20979;-75
2020/12/10 13:17:43;;;;;;;4.32;3.33;;;8.30;73.90;;;;;;4952536;28;20511;-74
2020/12/10 13:20:09;;;;;;;6.15;4.32;;;8.20;76.00;;;;;;4952692;28;20410;-75
2020/12/10 13:22:35;;;;;;;2.53;2.20;;;8.40;76.40;;;;;;4973884;28;20474;-75
2020/12/10 13:25:01;;;;;;;3.58;2.00;;;8.50;75.90;;;;;;4954778;28;20919;-75
2020/12/10 13:27:28;;;;;;;2.33;2.13;;;8.50;74.30;;;;;;4951028;28;20416;-75
2020/12/10 13:29:55;;;;;;;3.20;2.30;;;8.50;72.90;;;;;;4954110;28;20408;-75
2020/12/10 13:32:21;;;;;;;4.10;2.42;;;8.30;71.00;;;;;;4953440;28;21550;-75
2020/12/10 13:34:47;;;;;;;2.80;2.00;;;8.40;73.60;;;;;;4975549;28;20512;-75
2020/12/10 13:37:13;;;;;;;2.58;1.90;;;8.40;74.40;;;;;;4976698;28;20841;-75
2020/12/10 13:39:39;;;;;;;2.30;2.10;;;8.50;74.90;;;;;;4975522;28;20418;-75
2020/12/10 13:42:06;;;;;;;1.92;1.50;;;8.60;73.80;;;;;;4959102;28;20413;-75
2020/12/10 13:44:31;;;;;;;2.65;1.52;;;8.60;74.60;;;;;;4973027;28;20409;-75
2020/12/10 13:46:58;;;;;;;1.42;1.27;;;8.60;73.80;;;;;;4973059;28;20913;-75
2020/12/10 13:49:24;;;;;;;2.47;1.70;;;8.70;75.00;;;;;;4974211;28;20412;-76
2020/12/10 13:51:50;;;;;;;2.53;1.90;;;8.80;74.70;;;;;;4974065;28;20823;-76